sensor_id;sensor_type;location;lat;lon;timestamp;pressure;altitude;pressure_sealevel;temperature;humidity
12146;BME280;6136;47.032;15.398;2023-06-14T00:00:01;97236.38;;;15.01;nan
12146;BME280;6136;47.032;15.398;2023-06-14T00:02:31;97243.00;;;15.06;nan
12146;BME280;6136;47.032;15.398;2023-06-14T00:05:00;97242.03;;;15.07;nan
12146;BME280;6136;47.032;15.398;2023-06-14T00:07:36;97238.38;;;15.08;nan
12146;BME280;6136;47.032;15.398;2023-06-14T00:10:06;97235.47;;;15.11;nan
12146;BME280;6136;47.032;15.398;2023-06-14T00:12:34;97229.28;;;15.11;nan
12146;BME280;6136;47.032;15.398;2023-06-14T00:15:03;97221.41;;;15.09;nan
12146;BME280;6136;47.032;15.398;2023-06-14T00:17:32;97224.31;;;15.06;nan
12146;BME280;6136;47.032;15.398;2023-06-14T00:20:03;97221.53;;;15.08;nan
12146;BME280;6136;47.032;15.398;2023-06-14T00:22:34;97210.97;;;15.06;nan
12146;BME280;6136;47.032;15.398;2023-06-14T00:25:04;97212.91;;;15.04;nan
12146;BME280;6136;47.032;15.398;2023-06-14T00:27:45;97217.88;;;15.09;nan
12146;BME280;6136;47.032;15.398;2023-06-14T00:30:14;97219.69;;;15.08;nan
12146;BME280;6136;47.032;15.398;2023-06-14T00:32:43;97208.31;;;15.06;nan
12146;BME280;6136;47.032;15.398;2023-06-14T00:35:13;97219.81;;;15.07;nan
12146;BME280;6136;47.032;15.398;2023-06-14T00:37:41;97212.22;;;15.02;nan
12146;BME280;6136;47.032;15.398;2023-06-14T00:40:10;97213.91;;;15.03;nan
12146;BME280;6136;47.032;15.398;2023-06-14T00:42:38;97211.94;;;15.05;nan
12146;BME280;6136;47.032;15.398;2023-06-14T00:45:07;97219.25;;;15.03;nan
12146;BME280;6136;47.032;15.398;2023-06-14T00:47:37;97214.16;;;15.00;nan
12146;BME280;6136;47.032;15.398;2023-06-14T00:50:07;97213.75;;;15.05;nan
12146;BME280;6136;47.032;15.398;2023-06-14T00:52:37;97216.13;;;14.98;nan
12146;BME280;6136;47.032;15.398;2023-06-14T00:55:07;97227.38;;;15.02;nan
12146;BME280;6136;47.032;15.398;2023-06-14T00:57:35;97225.56;;;15.02;nan
12146;BME280;6136;47.032;15.398;2023-06-14T01:00:06;97222.06;;;15.02;nan
12146;BME280;6136;47.032;15.398;2023-06-14T01:02:36;97216.41;;;14.95;nan
12146;BME280;6136;47.032;15.398;2023-06-14T01:05:07;97218.91;;;14.97;nan
12146;BME280;6136;47.032;15.398;2023-06-14T01:08:11;97219.06;;;14.95;nan
12146;BME280;6136;47.032;15.398;2023-06-14T01:10:47;97213.25;;;14.90;nan
12146;BME280;6136;47.032;15.398;2023-06-14T01:13:21;97218.16;;;14.85;nan
12146;BME280;6136;47.032;15.398;2023-06-14T01:15:52;97203.63;;;14.78;nan
12146;BME280;6136;47.032;15.398;2023-06-14T01:18:21;97205.91;;;14.83;nan
12146;BME280;6136;47.032;15.398;2023-06-14T01:20:53;97202.91;;;14.76;nan
12146;BME280;6136;47.032;15.398;2023-06-14T01:23:25;97199.56;;;14.74;nan
12146;BME280;6136;47.032;15.398;2023-06-14T01:26:00;97193.03;;;14.67;nan
12146;BME280;6136;47.032;15.398;2023-06-14T01:28:31;97189.38;;;14.68;nan
12146;BME280;6136;47.032;15.398;2023-06-14T01:31:01;97189.38;;;14.68;nan
12146;BME280;6136;47.032;15.398;2023-06-14T01:33:33;97187.84;;;14.65;nan
12146;BME280;6136;47.032;15.398;2023-06-14T01:36:03;97181.16;;;14.60;nan
12146;BME280;6136;47.032;15.398;2023-06-14T01:38:34;97183.06;;;14.69;nan
12146;BME280;6136;47.032;15.398;2023-06-14T01:41:05;97193.75;;;14.69;nan
12146;BME280;6136;47.032;15.398;2023-06-14T01:43:34;97182.38;;;14.67;nan
12146;BME280;6136;47.032;15.398;2023-06-14T01:46:04;97178.88;;;14.66;nan
12146;BME280;6136;47.032;15.398;2023-06-14T01:48:34;97177.16;;;14.65;nan
12146;BME280;6136;47.032;15.398;2023-06-14T01:51:03;97181.91;;;14.62;nan
12146;BME280;6136;47.032;15.398;2023-06-14T01:53:31;97185.16;;;14.65;nan
12146;BME280;6136;47.032;15.398;2023-06-14T01:56:00;97181.66;;;14.65;nan
12146;BME280;6136;47.032;15.398;2023-06-14T01:58:30;97192.31;;;14.65;nan
12146;BME280;6136;47.032;15.398;2023-06-14T02:00:59;97178.50;;;14.60;nan
12146;BME280;6136;47.032;15.398;2023-06-14T02:03:27;97183.59;;;14.63;nan
12146;BME280;6136;47.032;15.398;2023-06-14T02:05:56;97183.84;;;14.60;nan
12146;BME280;6136;47.032;15.398;2023-06-14T02:08:25;97177.94;;;14.56;nan
12146;BME280;6136;47.032;15.398;2023-06-14T02:10:53;97187.34;;;14.60;nan
12146;BME280;6136;47.032;15.398;2023-06-14T02:13:23;97180.47;;;14.58;nan
12146;BME280;6136;47.032;15.398;2023-06-14T02:15:51;97172.84;;;14.53;nan
12146;BME280;6136;47.032;15.398;2023-06-14T02:18:21;97185.63;;;14.50;nan
12146;BME280;6136;47.032;15.398;2023-06-14T02:20:50;97178.72;;;14.47;nan
12146;BME280;6136;47.032;15.398;2023-06-14T02:23:18;97183.19;;;14.47;nan
12146;BME280;6136;47.032;15.398;2023-06-14T02:25:46;97178.13;;;14.44;nan
12146;BME280;6136;47.032;15.398;2023-06-14T02:28:14;97179.47;;;14.38;nan
12146;BME280;6136;47.032;15.398;2023-06-14T02:30:44;97173.53;;;14.34;nan
12146;BME280;6136;47.032;15.398;2023-06-14T02:33:12;97176.19;;;14.34;nan
12146;BME280;6136;47.032;15.398;2023-06-14T02:35:40;97178.13;;;14.32;nan
12146;BME280;6136;47.032;15.398;2023-06-14T02:38:08;97181.53;;;14.34;nan
12146;BME280;6136;47.032;15.398;2023-06-14T02:40:36;97181.66;;;14.33;nan
12146;BME280;6136;47.032;15.398;2023-06-14T02:43:04;97188.78;;;14.32;nan
12146;BME280;6136;47.032;15.398;2023-06-14T02:45:32;97185.69;;;14.27;nan
12146;BME280;6136;47.032;15.398;2023-06-14T02:48:02;97172.38;;;14.16;nan
12146;BME280;6136;47.032;15.398;2023-06-14T02:50:31;97188.00;;;14.21;nan
12146;BME280;6136;47.032;15.398;2023-06-14T02:52:59;97180.66;;;14.13;nan
12146;BME280;6136;47.032;15.398;2023-06-14T02:55:27;97187.06;;;14.11;nan
12146;BME280;6136;47.032;15.398;2023-06-14T02:57:55;97176.06;;;14.04;nan
12146;BME280;6136;47.032;15.398;2023-06-14T03:00:25;97182.97;;;14.07;nan
12146;BME280;6136;47.032;15.398;2023-06-14T03:02:53;97182.97;;;14.07;nan
12146;BME280;6136;47.032;15.398;2023-06-14T03:05:24;97174.38;;;14.03;nan
12146;BME280;6136;47.032;15.398;2023-06-14T03:07:54;97179.91;;;14.11;nan
12146;BME280;6136;47.032;15.398;2023-06-14T03:10:23;97178.94;;;14.12;nan
12146;BME280;6136;47.032;15.398;2023-06-14T03:12:56;97173.03;;;14.09;nan
12146;BME280;6136;47.032;15.398;2023-06-14T03:15:25;97177.25;;;14.11;nan
12146;BME280;6136;47.032;15.398;2023-06-14T03:17:54;97172.16;;;14.08;nan
12146;BME280;6136;47.032;15.398;2023-06-14T03:20:24;97167.69;;;14.09;nan
12146;BME280;6136;47.032;15.398;2023-06-14T03:22:55;97168.28;;;14.12;nan
12146;BME280;6136;47.032;15.398;2023-06-14T03:25:24;97168.06;;;14.15;nan
12146;BME280;6136;47.032;15.398;2023-06-14T03:27:56;97170.97;;;14.12;nan
12146;BME280;6136;47.032;15.398;2023-06-14T03:30:24;97173.63;;;14.12;nan
12146;BME280;6136;47.032;15.398;2023-06-14T03:32:52;97178.72;;;14.15;nan
12146;BME280;6136;47.032;15.398;2023-06-14T03:35:25;97173.09;;;14.18;nan
12146;BME280;6136;47.032;15.398;2023-06-14T03:37:54;97176.06;;;14.15;nan
12146;BME280;6136;47.032;15.398;2023-06-14T03:40:23;97181.56;;;14.23;nan
12146;BME280;6136;47.032;15.398;2023-06-14T03:42:59;97179.06;;;14.22;nan
12146;BME280;6136;47.032;15.398;2023-06-14T03:45:28;97180.22;;;14.29;nan
12146;BME280;6136;47.032;15.398;2023-06-14T03:47:57;97189.78;;;14.31;nan
12146;BME280;6136;47.032;15.398;2023-06-14T03:50:30;97182.16;;;14.27;nan
12146;BME280;6136;47.032;15.398;2023-06-14T03:53:00;97188.91;;;14.42;nan
12146;BME280;6136;47.032;15.398;2023-06-14T03:55:30;97190.22;;;14.48;nan
12146;BME280;6136;47.032;15.398;2023-06-14T03:58:03;97184.38;;;14.54;nan
12146;BME280;6136;47.032;15.398;2023-06-14T04:00:32;97187.22;;;14.62;nan
12146;BME280;6136;47.032;15.398;2023-06-14T04:03:00;97193.16;;;14.65;nan
12146;BME280;6136;47.032;15.398;2023-06-14T04:05:32;97202.88;;;14.66;nan
12146;BME280;6136;47.032;15.398;2023-06-14T04:08:00;97201.28;;;14.64;nan
12146;BME280;6136;47.032;15.398;2023-06-14T04:10:31;97191.19;;;14.67;nan
12146;BME280;6136;47.032;15.398;2023-06-14T04:12:59;97197.84;;;14.73;nan
12146;BME280;6136;47.032;15.398;2023-06-14T04:15:27;97195.19;;;14.73;nan
12146;BME280;6136;47.032;15.398;2023-06-14T04:17:57;97205.56;;;14.76;nan
12146;BME280;6136;47.032;15.398;2023-06-14T04:20:28;97216.13;;;14.77;nan
12146;BME280;6136;47.032;15.398;2023-06-14T04:23:11;97210.66;;;14.79;nan
12146;BME280;6136;47.032;15.398;2023-06-14T04:25:40;97207.59;;;14.84;nan
12146;BME280;6136;47.032;15.398;2023-06-14T04:28:12;97204.94;;;14.84;nan
12146;BME280;6136;47.032;15.398;2023-06-14T04:30:44;97209.75;;;14.90;nan
12146;BME280;6136;47.032;15.398;2023-06-14T04:33:16;97221.72;;;14.95;nan
12146;BME280;6136;47.032;15.398;2023-06-14T04:35:45;97216.41;;;14.95;nan
12146;BME280;6136;47.032;15.398;2023-06-14T04:38:16;97219.69;;;15.08;nan
12146;BME280;6136;47.032;15.398;2023-06-14T04:40:45;97217.59;;;15.12;nan
12146;BME280;6136;47.032;15.398;2023-06-14T04:43:17;97229.06;;;15.24;nan
12146;BME280;6136;47.032;15.398;2023-06-14T04:45:52;97215.91;;;15.32;nan
12146;BME280;6136;47.032;15.398;2023-06-14T04:48:21;97217.06;;;15.39;nan
12146;BME280;6136;47.032;15.398;2023-06-14T04:50:49;97216.31;;;15.37;nan
12146;BME280;6136;47.032;15.398;2023-06-14T04:53:21;97225.31;;;15.36;nan
12146;BME280;6136;47.032;15.398;2023-06-14T04:55:53;97225.63;;;15.42;nan
12146;BME280;6136;47.032;15.398;2023-06-14T04:58:22;97225.31;;;15.36;nan
12146;BME280;6136;47.032;15.398;2023-06-14T05:00:51;97236.00;;;15.36;nan
12146;BME280;6136;47.032;15.398;2023-06-14T05:03:20;97239.91;;;15.32;nan
12146;BME280;6136;47.032;15.398;2023-06-14T05:05:48;97236.13;;;15.34;nan
12146;BME280;6136;47.032;15.398;2023-06-14T05:08:17;97236.84;;;15.36;nan
12146;BME280;6136;47.032;15.398;2023-06-14T05:10:47;97235.03;;;15.37;nan
12146;BME280;6136;47.032;15.398;2023-06-14T05:13:16;97219.13;;;15.35;nan
12146;BME280;6136;47.032;15.398;2023-06-14T05:15:45;97238.53;;;15.37;nan
12146;BME280;6136;47.032;15.398;2023-06-14T05:18:14;97240.47;;;15.35;nan
12146;BME280;6136;47.032;15.398;2023-06-14T05:20:42;97247.41;;;15.38;nan
12146;BME280;6136;47.032;15.398;2023-06-14T05:23:10;97244.13;;;15.34;nan
12146;BME280;6136;47.032;15.398;2023-06-14T05:25:42;97250.31;;;15.35;nan
12146;BME280;6136;47.032;15.398;2023-06-14T05:28:12;97246.97;;;15.42;nan
12146;BME280;6136;47.032;15.398;2023-06-14T05:30:40;97244.78;;;15.47;nan
12146;BME280;6136;47.032;15.398;2023-06-14T05:33:08;97260.22;;;15.44;nan
12146;BME280;6136;47.032;15.398;2023-06-14T05:35:37;97255.72;;;15.44;nan
12146;BME280;6136;47.032;15.398;2023-06-14T05:38:05;97261.31;;;15.41;nan
12146;BME280;6136;47.032;15.398;2023-06-14T05:40:34;97255.59;;;15.46;nan
12146;BME280;6136;47.032;15.398;2023-06-14T05:43:02;97250.50;;;15.43;nan
12146;BME280;6136;47.032;15.398;2023-06-14T05:45:32;97256.69;;;15.43;nan
12146;BME280;6136;47.032;15.398;2023-06-14T05:48:00;97253.16;;;15.43;nan
12146;BME280;6136;47.032;15.398;2023-06-14T05:50:28;97260.50;;;15.41;nan
12146;BME280;6136;47.032;15.398;2023-06-14T05:52:57;97263.72;;;15.44;nan
12146;BME280;6136;47.032;15.398;2023-06-14T05:55:25;97264.56;;;15.45;nan
12146;BME280;6136;47.032;15.398;2023-06-14T05:57:53;97267.97;;;15.47;nan
12146;BME280;6136;47.032;15.398;2023-06-14T06:00:21;97274.53;;;15.43;nan
12146;BME280;6136;47.032;15.398;2023-06-14T06:02:50;97272.84;;;15.42;nan
12146;BME280;6136;47.032;15.398;2023-06-14T06:05:19;97279.88;;;15.43;nan
12146;BME280;6136;47.032;15.398;2023-06-14T06:07:47;97281.84;;;15.41;nan
12146;BME280;6136;47.032;15.398;2023-06-14T06:10:15;97284.53;;;15.41;nan
12146;BME280;6136;47.032;15.398;2023-06-14T06:12:43;97268.03;;;15.36;nan
12146;BME280;6136;47.032;15.398;2023-06-14T06:15:14;97279.03;;;15.42;nan
12146;BME280;6136;47.032;15.398;2023-06-14T06:17:43;97262.69;;;15.36;nan
12146;BME280;6136;47.032;15.398;2023-06-14T06:20:23;97279.25;;;15.30;nan
12146;BME280;6136;47.032;15.398;2023-06-14T06:22:55;97275.34;;;15.34;nan
12146;BME280;6136;47.032;15.398;2023-06-14T06:25:24;97288.28;;;15.38;nan
12146;BME280;6136;47.032;15.398;2023-06-14T06:27:53;97293.75;;;15.37;nan
12146;BME280;6136;47.032;15.398;2023-06-14T06:30:22;97297.88;;;15.41;nan
12146;BME280;6136;47.032;15.398;2023-06-14T06:32:51;97294.72;;;15.36;nan
12146;BME280;6136;47.032;15.398;2023-06-14T06:35:20;97297.47;;;15.45;nan
12146;BME280;6136;47.032;15.398;2023-06-14T06:37:49;97289.59;;;15.44;nan
12146;BME280;6136;47.032;15.398;2023-06-14T06:40:18;97306.03;;;15.49;nan
12146;BME280;6136;47.032;15.398;2023-06-14T06:42:46;97309.13;;;15.44;nan
12146;BME280;6136;47.032;15.398;2023-06-14T06:45:17;97306.31;;;15.46;nan
12146;BME280;6136;47.032;15.398;2023-06-14T06:47:45;97315.56;;;15.42;nan
12146;BME280;6136;47.032;15.398;2023-06-14T06:50:13;97319.94;;;15.43;nan
12146;BME280;6136;47.032;15.398;2023-06-14T06:52:42;97322.34;;;15.46;nan
12146;BME280;6136;47.032;15.398;2023-06-14T06:55:13;97321.09;;;15.50;nan
12146;BME280;6136;47.032;15.398;2023-06-14T06:57:42;97319.25;;;15.41;nan
12146;BME280;6136;47.032;15.398;2023-06-14T07:00:10;97318.84;;;15.45;nan
12146;BME280;6136;47.032;15.398;2023-06-14T07:02:40;97323.28;;;15.56;nan
12146;BME280;6136;47.032;15.398;2023-06-14T07:05:08;97332.50;;;15.52;nan
12146;BME280;6136;47.032;15.398;2023-06-14T07:07:36;97331.31;;;15.56;nan
12146;BME280;6136;47.032;15.398;2023-06-14T07:10:05;97338.81;;;15.51;nan
12146;BME280;6136;47.032;15.398;2023-06-14T07:12:35;97351.28;;;15.41;nan
12146;BME280;6136;47.032;15.398;2023-06-14T07:15:07;97347.75;;;15.40;nan
12146;BME280;6136;47.032;15.398;2023-06-14T07:17:35;97347.56;;;15.32;nan
12146;BME280;6136;47.032;15.398;2023-06-14T07:20:05;97357.84;;;15.37;nan
12146;BME280;6136;47.032;15.398;2023-06-14T07:22:40;97367.22;;;15.31;nan
12146;BME280;6136;47.032;15.398;2023-06-14T07:25:10;97367.59;;;15.27;nan
12146;BME280;6136;47.032;15.398;2023-06-14T07:27:43;97370.53;;;15.24;nan
12146;BME280;6136;47.032;15.398;2023-06-14T07:30:12;97374.19;;;15.23;nan
12146;BME280;6136;47.032;15.398;2023-06-14T07:32:40;97369.34;;;15.17;nan
12146;BME280;6136;47.032;15.398;2023-06-14T07:35:08;97380.03;;;15.17;nan
12146;BME280;6136;47.032;15.398;2023-06-14T07:37:36;97379.19;;;15.16;nan
12146;BME280;6136;47.032;15.398;2023-06-14T07:40:06;97380.56;;;15.10;nan
12146;BME280;6136;47.032;15.398;2023-06-14T07:42:34;97383.34;;;15.09;nan
12146;BME280;6136;47.032;15.398;2023-06-14T07:45:05;97382.44;;;15.20;nan
12146;BME280;6136;47.032;15.398;2023-06-14T07:47:34;97383.16;;;15.22;nan
12146;BME280;6136;47.032;15.398;2023-06-14T07:50:03;97396.13;;;15.26;nan
12146;BME280;6136;47.032;15.398;2023-06-14T07:52:33;97392.94;;;15.32;nan
12146;BME280;6136;47.032;15.398;2023-06-14T07:55:01;97394.50;;;15.35;nan
12146;BME280;6136;47.032;15.398;2023-06-14T07:57:29;97401.53;;;15.36;nan
12146;BME280;6136;47.032;15.398;2023-06-14T07:59:57;97405.97;;;15.26;nan
12146;BME280;6136;47.032;15.398;2023-06-14T08:02:27;97409.59;;;15.25;nan
12146;BME280;6136;47.032;15.398;2023-06-14T08:04:55;97421.72;;;15.29;nan
12146;BME280;6136;47.032;15.398;2023-06-14T08:07:23;97413.16;;;15.14;nan
12146;BME280;6136;47.032;15.398;2023-06-14T08:09:52;97426.91;;;15.09;nan
12146;BME280;6136;47.032;15.398;2023-06-14T08:12:20;97433.66;;;15.13;nan
12146;BME280;6136;47.032;15.398;2023-06-14T08:14:49;97424.56;;;15.16;nan
12146;BME280;6136;47.032;15.398;2023-06-14T08:17:28;97423.16;;;15.01;nan
12146;BME280;6136;47.032;15.398;2023-06-14T08:19:56;97424.59;;;15.05;nan
12146;BME280;6136;47.032;15.398;2023-06-14T08:22:24;97431.34;;;14.88;nan
12146;BME280;6136;47.032;15.398;2023-06-14T08:24:54;97437.47;;;15.00;nan
12146;BME280;6136;47.032;15.398;2023-06-14T08:27:23;97443.91;;;14.97;nan
12146;BME280;6136;47.032;15.398;2023-06-14T08:29:51;97440.25;;;14.98;nan
12146;BME280;6136;47.032;15.398;2023-06-14T08:32:19;97453.38;;;14.90;nan
12146;BME280;6136;47.032;15.398;2023-06-14T08:34:48;97459.91;;;14.97;nan
12146;BME280;6136;47.032;15.398;2023-06-14T08:37:30;97455.59;;;14.85;nan
12146;BME280;6136;47.032;15.398;2023-06-14T08:39:58;97458.88;;;14.89;nan
12146;BME280;6136;47.032;15.398;2023-06-14T08:42:26;97455.94;;;14.92;nan
12146;BME280;6136;47.032;15.398;2023-06-14T08:44:58;97460.19;;;14.94;nan
12146;BME280;6136;47.032;15.398;2023-06-14T08:47:27;97454.34;;;15.00;nan
12146;BME280;6136;47.032;15.398;2023-06-14T08:49:58;97457.25;;;14.97;nan
12146;BME280;6136;47.032;15.398;2023-06-14T08:52:28;97455.97;;;15.12;nan
12146;BME280;6136;47.032;15.398;2023-06-14T08:55:00;97460.69;;;15.20;nan
12146;BME280;6136;47.032;15.398;2023-06-14T08:57:29;97463.78;;;15.36;nan
12146;BME280;6136;47.032;15.398;2023-06-14T08:59:58;97482.75;;;15.33;nan
12146;BME280;6136;47.032;15.398;2023-06-14T09:02:31;97484.41;;;15.34;nan
12146;BME280;6136;47.032;15.398;2023-06-14T09:05:03;97478.72;;;15.39;nan
12146;BME280;6136;47.032;15.398;2023-06-14T09:07:32;97478.94;;;15.47;nan
12146;BME280;6136;47.032;15.398;2023-06-14T09:10:08;97479.31;;;15.53;nan
12146;BME280;6136;47.032;15.398;2023-06-14T09:12:36;97473.47;;;15.48;nan
12146;BME280;6136;47.032;15.398;2023-06-14T09:15:07;97475.63;;;15.23;nan
12146;BME280;6136;47.032;15.398;2023-06-14T09:17:36;97476.94;;;15.28;nan
12146;BME280;6136;47.032;15.398;2023-06-14T09:20:07;97482.91;;;15.21;nan
12146;BME280;6136;47.032;15.398;2023-06-14T09:22:37;97473.47;;;15.05;nan
12146;BME280;6136;47.032;15.398;2023-06-14T09:25:06;97481.81;;;15.12;nan
12146;BME280;6136;47.032;15.398;2023-06-14T09:27:34;97473.69;;;15.25;nan
12146;BME280;6136;47.032;15.398;2023-06-14T09:30:10;97472.66;;;15.37;nan
12146;BME280;6136;47.032;15.398;2023-06-14T09:32:40;97472.78;;;15.35;nan
12146;BME280;6136;47.032;15.398;2023-06-14T09:35:10;97478.25;;;15.34;nan
12146;BME280;6136;47.032;15.398;2023-06-14T09:37:38;97477.25;;;15.46;nan
12146;BME280;6136;47.032;15.398;2023-06-14T09:40:07;97480.03;;;15.56;nan
12146;BME280;6136;47.032;15.398;2023-06-14T09:42:37;97480.53;;;15.38;nan
12146;BME280;6136;47.032;15.398;2023-06-14T09:45:05;97480.38;;;15.83;nan
12146;BME280;6136;47.032;15.398;2023-06-14T09:47:34;97476.28;;;16.00;nan
12146;BME280;6136;47.032;15.398;2023-06-14T09:50:02;97472.13;;;16.47;nan
12146;BME280;6136;47.032;15.398;2023-06-14T09:52:32;97485.19;;;16.40;nan
12146;BME280;6136;47.032;15.398;2023-06-14T09:55:03;97481.19;;;16.55;nan
12146;BME280;6136;47.032;15.398;2023-06-14T09:57:41;97478.25;;;16.28;nan
12146;BME280;6136;47.032;15.398;2023-06-14T10:00:13;97486.22;;;16.69;nan
12146;BME280;6136;47.032;15.398;2023-06-14T10:02:49;97473.34;;;17.13;nan
12146;BME280;6136;47.032;15.398;2023-06-14T10:05:23;97467.88;;;17.15;nan
12146;BME280;6136;47.032;15.398;2023-06-14T10:07:59;97472.25;;;17.35;nan
12146;BME280;6136;47.032;15.398;2023-06-14T10:10:28;97476.91;;;17.42;nan
12146;BME280;6136;47.032;15.398;2023-06-14T10:12:57;97472.56;;;17.61;nan
12146;BME280;6136;47.032;15.398;2023-06-14T10:15:30;97477.91;;;18.09;nan
12146;BME280;6136;47.032;15.398;2023-06-14T10:18:07;97479.84;;;18.16;nan
12146;BME280;6136;47.032;15.398;2023-06-14T10:20:47;97482.66;;;18.34;nan
12146;BME280;6136;47.032;15.398;2023-06-14T10:23:21;97479.44;;;18.68;nan
12146;BME280;6136;47.032;15.398;2023-06-14T10:25:54;97467.28;;;19.00;nan
12146;BME280;6136;47.032;15.398;2023-06-14T10:28:24;97468.75;;;19.58;nan
12146;BME280;6136;47.032;15.398;2023-06-14T10:31:06;97471.97;;;19.61;nan
12146;BME280;6136;47.032;15.398;2023-06-14T10:33:36;97472.59;;;19.55;nan
12146;BME280;6136;47.032;15.398;2023-06-14T10:36:26;97470.34;;;20.56;nan
12146;BME280;6136;47.032;15.398;2023-06-14T10:39:04;97472.84;;;20.83;nan
12146;BME280;6136;47.032;15.398;2023-06-14T10:41:35;97472.00;;;20.82;nan
12146;BME280;6136;47.032;15.398;2023-06-14T10:47:25;97457.03;;;20.80;nan
12146;BME280;6136;47.032;15.398;2023-06-14T10:49:55;97456.88;;;20.81;nan
12146;BME280;6136;47.032;15.398;2023-06-14T10:52:26;97464.50;;;20.94;nan
12146;BME280;6136;47.032;15.398;2023-06-14T10:55:12;97456.28;;;20.70;nan
12146;BME280;6136;47.032;15.398;2023-06-14T10:57:43;97460.91;;;20.85;nan
12146;BME280;6136;47.032;15.398;2023-06-14T11:00:18;97457.72;;;20.82;nan
12146;BME280;6136;47.032;15.398;2023-06-14T11:03:25;97453.06;;;21.00;nan
12146;BME280;6136;47.032;15.398;2023-06-14T11:05:59;97451.91;;;20.69;nan
12146;BME280;6136;47.032;15.398;2023-06-14T11:08:40;97446.47;;;20.95;nan
12146;BME280;6136;47.032;15.398;2023-06-14T11:11:14;97439.91;;;20.89;nan
12146;BME280;6136;47.032;15.398;2023-06-14T11:13:45;97448.81;;;20.89;nan
12146;BME280;6136;47.032;15.398;2023-06-14T11:16:17;97445.63;;;20.94;nan
12146;BME280;6136;47.032;15.398;2023-06-14T11:18:46;97445.28;;;20.89;nan
12146;BME280;6136;47.032;15.398;2023-06-14T11:21:16;97448.59;;;20.75;nan
12146;BME280;6136;47.032;15.398;2023-06-14T11:23:54;97435.69;;;20.52;nan
12146;BME280;6136;47.032;15.398;2023-06-14T11:26:28;97439.19;;;20.53;nan
12146;BME280;6136;47.032;15.398;2023-06-14T11:28:58;97438.59;;;21.01;nan
12146;BME280;6136;47.032;15.398;2023-06-14T11:31:28;97433.28;;;21.17;nan
12146;BME280;6136;47.032;15.398;2023-06-14T11:33:57;97435.56;;;21.12;nan
12146;BME280;6136;47.032;15.398;2023-06-14T11:36:26;97430.28;;;21.37;nan
12146;BME280;6136;47.032;15.398;2023-06-14T11:39:00;97433.47;;;20.82;nan
12146;BME280;6136;47.032;15.398;2023-06-14T11:41:36;97430.63;;;20.49;nan
12146;BME280;6136;47.032;15.398;2023-06-14T11:44:06;97428.97;;;20.57;nan
12146;BME280;6136;47.032;15.398;2023-06-14T11:46:34;97431.22;;;20.35;nan
12146;BME280;6136;47.032;15.398;2023-06-14T11:49:03;97431.34;;;20.08;nan
12146;BME280;6136;47.032;15.398;2023-06-14T11:51:34;97430.63;;;19.80;nan
12146;BME280;6136;47.032;15.398;2023-06-14T11:54:04;97430.63;;;19.80;nan
12146;BME280;6136;47.032;15.398;2023-06-14T11:56:34;97422.09;;;19.85;nan
12146;BME280;6136;47.032;15.398;2023-06-14T11:59:04;97421.69;;;19.97;nan
12146;BME280;6136;47.032;15.398;2023-06-14T12:01:36;97417.31;;;19.96;nan
12146;BME280;6136;47.032;15.398;2023-06-14T12:04:05;97421.91;;;19.78;nan
12146;BME280;6136;47.032;15.398;2023-06-14T12:06:34;97421.91;;;19.78;nan
12146;BME280;6136;47.032;15.398;2023-06-14T12:09:04;97414.28;;;19.73;nan
12146;BME280;6136;47.032;15.398;2023-06-14T12:11:35;97402.72;;;19.99;nan
12146;BME280;6136;47.032;15.398;2023-06-14T12:14:04;97409.19;;;20.14;nan
12146;BME280;6136;47.032;15.398;2023-06-14T12:16:33;97415.28;;;20.24;nan
12146;BME280;6136;47.032;15.398;2023-06-14T12:19:11;97417.28;;;20.14;nan
12146;BME280;6136;47.032;15.398;2023-06-14T12:21:39;97409.00;;;20.33;nan
12146;BME280;6136;47.032;15.398;2023-06-14T12:24:08;97414.97;;;20.53;nan
12146;BME280;6136;47.032;15.398;2023-06-14T12:26:41;97410.19;;;20.39;nan
12146;BME280;6136;47.032;15.398;2023-06-14T12:29:10;97411.84;;;20.66;nan
12146;BME280;6136;47.032;15.398;2023-06-14T12:31:39;97409.78;;;20.51;nan
12146;BME280;6136;47.032;15.398;2023-06-14T12:34:08;97416.19;;;20.59;nan
12146;BME280;6136;47.032;15.398;2023-06-14T12:36:36;97406.78;;;20.63;nan
12146;BME280;6136;47.032;15.398;2023-06-14T12:39:08;97408.78;;;20.61;nan
12146;BME280;6136;47.032;15.398;2023-06-14T12:41:36;97404.13;;;20.71;nan
12146;BME280;6136;47.032;15.398;2023-06-14T12:44:06;97407.94;;;20.60;nan
12146;BME280;6136;47.032;15.398;2023-06-14T12:46:34;97405.50;;;20.75;nan
12146;BME280;6136;47.032;15.398;2023-06-14T12:49:03;97406.66;;;20.72;nan
12146;BME280;6136;47.032;15.398;2023-06-14T12:51:32;97398.94;;;20.77;nan
12146;BME280;6136;47.032;15.398;2023-06-14T12:54:00;97398.00;;;20.61;nan
12146;BME280;6136;47.032;15.398;2023-06-14T12:56:28;97399.84;;;20.60;nan
12146;BME280;6136;47.032;15.398;2023-06-14T12:58:58;97399.09;;;20.16;nan
12146;BME280;6136;47.032;15.398;2023-06-14T13:01:27;97399.53;;;20.29;nan
12146;BME280;6136;47.032;15.398;2023-06-14T13:03:56;97394.47;;;20.52;nan
12146;BME280;6136;47.032;15.398;2023-06-14T13:06:24;97396.75;;;20.39;nan
12146;BME280;6136;47.032;15.398;2023-06-14T13:08:52;97390.97;;;20.60;nan
12146;BME280;6136;47.032;15.398;2023-06-14T13:11:21;97395.28;;;20.44;nan
12146;BME280;6136;47.032;15.398;2023-06-14T13:13:49;97383.84;;;20.50;nan
12146;BME280;6136;47.032;15.398;2023-06-14T13:16:18;97390.97;;;20.60;nan
12146;BME280;6136;47.032;15.398;2023-06-14T13:18:47;97392.59;;;20.44;nan
12146;BME280;6136;47.032;15.398;2023-06-14T13:21:15;97388.13;;;20.69;nan
12146;BME280;6136;47.032;15.398;2023-06-14T13:23:43;97400.13;;;20.75;nan
12146;BME280;6136;47.032;15.398;2023-06-14T13:26:12;97395.00;;;20.64;nan
12146;BME280;6136;47.032;15.398;2023-06-14T13:28:40;97401.75;;;20.60;nan
12146;BME280;6136;47.032;15.398;2023-06-14T13:31:08;97397.78;;;20.80;nan
12146;BME280;6136;47.032;15.398;2023-06-14T13:33:36;97394.25;;;20.87;nan
12146;BME280;6136;47.032;15.398;2023-06-14T13:36:06;97389.34;;;20.83;nan
12146;BME280;6136;47.032;15.398;2023-06-14T13:38:35;97397.16;;;21.02;nan
12146;BME280;6136;47.032;15.398;2023-06-14T13:41:03;97387.72;;;21.06;nan